sensor_id;sensor_type;location;lat;lon;timestamp;P1;durP1;ratioP1;P2;durP2;ratioP2
53652;SDS011;39553;52.954;5.932;2023-04-03T00:01:13;5.63;;;1.23;;
53652;SDS011;39553;52.954;5.932;2023-04-03T00:03:39;3.50;;;1.20;;
53652;SDS011;39553;52.954;5.932;2023-04-03T00:06:06;1.55;;;1.02;;
53652;SDS011;39553;52.954;5.932;2023-04-03T00:08:34;5.68;;;1.27;;
53652;SDS011;39553;52.954;5.932;2023-04-03T00:11:00;4.47;;;1.35;;
53652;SDS011;39553;52.954;5.932;2023-04-03T00:13:26;1.85;;;1.10;;
53652;SDS011;39553;52.954;5.932;2023-04-03T00:15:52;4.28;;;1.30;;
53652;SDS011;39553;52.954;5.932;2023-04-03T00:18:19;1.42;;;0.90;;
53652;SDS011;39553;52.954;5.932;2023-04-03T00:20:45;2.05;;;0.90;;
53652;SDS011;39553;52.954;5.932;2023-04-03T00:23:10;2.88;;;1.00;;
53652;SDS011;39553;52.954;5.932;2023-04-03T00:25:37;2.88;;;1.10;;
53652;SDS011;39553;52.954;5.932;2023-04-03T00:28:03;3.03;;;1.33;;
53652;SDS011;39553;52.954;5.932;2023-04-03T00:30:29;2.35;;;1.10;;
53652;SDS011;39553;52.954;5.932;2023-04-03T00:32:56;2.30;;;0.95;;
53652;SDS011;39553;52.954;5.932;2023-04-03T00:35:22;2.17;;;0.90;;
53652;SDS011;39553;52.954;5.932;2023-04-03T00:37:52;4.30;;;1.23;;
53652;SDS011;39553;52.954;5.932;2023-04-03T00:40:19;2.45;;;0.93;;
53652;SDS011;39553;52.954;5.932;2023-04-03T00:42:47;4.13;;;1.83;;
53652;SDS011;39553;52.954;5.932;2023-04-03T00:47:57;2.75;;;1.30;;
53652;SDS011;39553;52.954;5.932;2023-04-03T00:50:26;2.78;;;1.17;;
53652;SDS011;39553;52.954;5.932;2023-04-03T00:52:53;3.05;;;1.30;;
53652;SDS011;39553;52.954;5.932;2023-04-03T00:55:20;1.48;;;1.08;;
53652;SDS011;39553;52.954;5.932;2023-04-03T00:57:46;1.90;;;1.20;;
53652;SDS011;39553;52.954;5.932;2023-04-03T01:00:14;4.35;;;0.90;;
53652;SDS011;39553;52.954;5.932;2023-04-03T01:02:43;1.92;;;1.20;;
53652;SDS011;39553;52.954;5.932;2023-04-03T01:05:09;2.55;;;1.05;;
53652;SDS011;39553;52.954;5.932;2023-04-03T01:07:36;5.53;;;1.05;;
53652;SDS011;39553;52.954;5.932;2023-04-03T01:10:10;4.13;;;1.23;;
53652;SDS011;39553;52.954;5.932;2023-04-03T01:12:39;1.88;;;1.10;;
53652;SDS011;39553;52.954;5.932;2023-04-03T01:15:09;2.20;;;1.05;;
53652;SDS011;39553;52.954;5.932;2023-04-03T01:17:45;7.30;;;1.30;;
53652;SDS011;39553;52.954;5.932;2023-04-03T01:25:23;2.20;;;0.93;;
53652;SDS011;39553;52.954;5.932;2023-04-03T01:27:49;3.75;;;1.23;;
53652;SDS011;39553;52.954;5.932;2023-04-03T01:30:17;1.90;;;1.00;;
53652;SDS011;39553;52.954;5.932;2023-04-03T01:32:45;2.33;;;1.13;;
53652;SDS011;39553;52.954;5.932;2023-04-03T01:35:11;3.78;;;1.05;;
53652;SDS011;39553;52.954;5.932;2023-04-03T01:37:38;2.50;;;1.00;;
53652;SDS011;39553;52.954;5.932;2023-04-03T01:40:03;3.00;;;1.20;;
53652;SDS011;39553;52.954;5.932;2023-04-03T01:42:30;2.38;;;1.30;;
53652;SDS011;39553;52.954;5.932;2023-04-03T01:44:56;3.10;;;1.20;;
53652;SDS011;39553;52.954;5.932;2023-04-03T01:47:22;1.90;;;1.08;;
53652;SDS011;39553;52.954;5.932;2023-04-03T01:49:48;2.85;;;1.15;;
53652;SDS011;39553;52.954;5.932;2023-04-03T01:52:13;3.58;;;0.90;;
53652;SDS011;39553;52.954;5.932;2023-04-03T01:54:39;1.95;;;1.02;;
53652;SDS011;39553;52.954;5.932;2023-04-03T01:57:05;2.03;;;1.42;;
53652;SDS011;39553;52.954;5.932;2023-04-03T01:59:31;2.20;;;1.13;;
53652;SDS011;39553;52.954;5.932;2023-04-03T02:01:57;2.40;;;0.93;;
53652;SDS011;39553;52.954;5.932;2023-04-03T02:04:22;2.55;;;1.20;;
53652;SDS011;39553;52.954;5.932;2023-04-03T02:06:48;2.30;;;1.33;;
53652;SDS011;39553;52.954;5.932;2023-04-03T02:09:14;4.45;;;1.35;;
53652;SDS011;39553;52.954;5.932;2023-04-03T02:11:40;2.00;;;0.98;;
53652;SDS011;39553;52.954;5.932;2023-04-03T02:14:05;3.95;;;1.20;;
53652;SDS011;39553;52.954;5.932;2023-04-03T02:16:31;3.08;;;1.00;;
53652;SDS011;39553;52.954;5.932;2023-04-03T02:18:58;1.98;;;0.88;;
53652;SDS011;39553;52.954;5.932;2023-04-03T02:21:25;3.63;;;0.85;;
53652;SDS011;39553;52.954;5.932;2023-04-03T02:23:50;2.22;;;1.23;;
53652;SDS011;39553;52.954;5.932;2023-04-03T02:26:16;2.63;;;0.95;;
53652;SDS011;39553;52.954;5.932;2023-04-03T02:28:42;2.05;;;1.08;;
53652;SDS011;39553;52.954;5.932;2023-04-03T02:31:08;3.15;;;1.17;;
53652;SDS011;39553;52.954;5.932;2023-04-03T02:33:35;3.88;;;1.42;;
53652;SDS011;39553;52.954;5.932;2023-04-03T02:36:02;2.85;;;1.42;;
53652;SDS011;39553;52.954;5.932;2023-04-03T02:38:32;4.60;;;0.93;;
53652;SDS011;39553;52.954;5.932;2023-04-03T02:41:02;1.05;;;0.63;;
53652;SDS011;39553;52.954;5.932;2023-04-03T02:43:29;5.28;;;1.48;;
53652;SDS011;39553;52.954;5.932;2023-04-03T02:45:55;5.15;;;1.08;;
53652;SDS011;39553;52.954;5.932;2023-04-03T02:48:21;3.08;;;1.27;;
53652;SDS011;39553;52.954;5.932;2023-04-03T02:50:48;2.08;;;1.10;;
53652;SDS011;39553;52.954;5.932;2023-04-03T02:53:13;3.20;;;1.27;;
53652;SDS011;39553;52.954;5.932;2023-04-03T02:55:40;4.38;;;1.40;;
53652;SDS011;39553;52.954;5.932;2023-04-03T02:58:06;1.35;;;0.88;;
53652;SDS011;39553;52.954;5.932;2023-04-03T03:00:31;2.20;;;1.08;;
53652;SDS011;39553;52.954;5.932;2023-04-03T03:02:57;3.35;;;1.33;;
53652;SDS011;39553;52.954;5.932;2023-04-03T03:05:23;2.70;;;1.20;;
53652;SDS011;39553;52.954;5.932;2023-04-03T03:07:49;3.72;;;1.30;;
53652;SDS011;39553;52.954;5.932;2023-04-03T03:10:15;3.70;;;1.30;;
53652;SDS011;39553;52.954;5.932;2023-04-03T03:12:41;3.75;;;1.33;;
53652;SDS011;39553;52.954;5.932;2023-04-03T03:15:07;5.45;;;1.20;;
53652;SDS011;39553;52.954;5.932;2023-04-03T03:17:33;3.38;;;1.17;;
53652;SDS011;39553;52.954;5.932;2023-04-03T03:19:59;3.83;;;2.85;;
53652;SDS011;39553;52.954;5.932;2023-04-03T03:22:25;5.25;;;1.40;;
53652;SDS011;39553;52.954;5.932;2023-04-03T03:24:51;2.63;;;1.30;;
53652;SDS011;39553;52.954;5.932;2023-04-03T03:27:16;5.03;;;1.10;;
53652;SDS011;39553;52.954;5.932;2023-04-03T03:29:42;5.53;;;1.70;;
53652;SDS011;39553;52.954;5.932;2023-04-03T03:32:08;3.88;;;1.80;;
53652;SDS011;39553;52.954;5.932;2023-04-03T03:34:34;5.47;;;1.40;;
53652;SDS011;39553;52.954;5.932;2023-04-03T03:36:59;4.07;;;1.33;;
53652;SDS011;39553;52.954;5.932;2023-04-03T03:39:25;3.58;;;1.35;;
53652;SDS011;39553;52.954;5.932;2023-04-03T03:41:51;5.90;;;1.40;;
53652;SDS011;39553;52.954;5.932;2023-04-03T03:44:18;1.75;;;1.05;;
53652;SDS011;39553;52.954;5.932;2023-04-03T03:46:45;5.05;;;1.38;;
53652;SDS011;39553;52.954;5.932;2023-04-03T03:49:10;5.38;;;1.73;;
53652;SDS011;39553;52.954;5.932;2023-04-03T03:51:36;9.18;;;1.50;;
53652;SDS011;39553;52.954;5.932;2023-04-03T03:54:03;3.20;;;1.70;;
53652;SDS011;39553;52.954;5.932;2023-04-03T03:56:29;3.70;;;1.50;;
53652;SDS011;39553;52.954;5.932;2023-04-03T03:58:55;4.15;;;1.70;;
53652;SDS011;39553;52.954;5.932;2023-04-03T04:01:21;5.90;;;1.40;;
53652;SDS011;39553;52.954;5.932;2023-04-03T04:03:48;5.47;;;1.60;;
53652;SDS011;39553;52.954;5.932;2023-04-03T04:06:14;4.10;;;1.48;;
53652;SDS011;39553;52.954;5.932;2023-04-03T04:08:40;5.80;;;1.42;;
53652;SDS011;39553;52.954;5.932;2023-04-03T04:11:07;3.60;;;1.50;;
53652;SDS011;39553;52.954;5.932;2023-04-03T04:13:33;2.92;;;1.45;;
53652;SDS011;39553;52.954;5.932;2023-04-03T04:15:59;4.80;;;1.85;;
53652;SDS011;39553;52.954;5.932;2023-04-03T04:18:25;3.90;;;1.85;;
53652;SDS011;39553;52.954;5.932;2023-04-03T04:20:50;2.28;;;1.23;;
53652;SDS011;39553;52.954;5.932;2023-04-03T04:23:17;5.47;;;1.63;;
53652;SDS011;39553;52.954;5.932;2023-04-03T04:25:47;3.47;;;1.50;;
53652;SDS011;39553;52.954;5.932;2023-04-03T04:28:14;3.67;;;1.70;;
53652;SDS011;39553;52.954;5.932;2023-04-03T04:30:40;3.60;;;1.35;;
53652;SDS011;39553;52.954;5.932;2023-04-03T04:33:06;6.13;;;1.83;;
53652;SDS011;39553;52.954;5.932;2023-04-03T04:35:32;8.65;;;2.05;;
53652;SDS011;39553;52.954;5.932;2023-04-03T04:37:58;2.88;;;1.33;;
53652;SDS011;39553;52.954;5.932;2023-04-03T04:40:25;4.22;;;1.77;;
53652;SDS011;39553;52.954;5.932;2023-04-03T04:42:51;3.83;;;1.70;;
53652;SDS011;39553;52.954;5.932;2023-04-03T04:45:17;5.45;;;2.55;;
53652;SDS011;39553;52.954;5.932;2023-04-03T04:47:43;7.22;;;1.98;;
53652;SDS011;39553;52.954;5.932;2023-04-03T04:50:09;3.72;;;2.35;;
53652;SDS011;39553;52.954;5.932;2023-04-03T04:52:36;6.38;;;1.92;;
53652;SDS011;39553;52.954;5.932;2023-04-03T04:55:03;4.93;;;1.90;;
53652;SDS011;39553;52.954;5.932;2023-04-03T04:57:29;2.97;;;1.70;;
53652;SDS011;39553;52.954;5.932;2023-04-03T04:59:55;5.07;;;1.92;;
53652;SDS011;39553;52.954;5.932;2023-04-03T05:02:20;4.95;;;2.38;;
53652;SDS011;39553;52.954;5.932;2023-04-03T05:04:46;8.60;;;2.75;;
53652;SDS011;39553;52.954;5.932;2023-04-03T05:07:12;4.43;;;1.77;;
53652;SDS011;39553;52.954;5.932;2023-04-03T05:09:38;5.47;;;1.73;;
53652;SDS011;39553;52.954;5.932;2023-04-03T05:12:06;5.10;;;1.98;;
53652;SDS011;39553;52.954;5.932;2023-04-03T05:14:32;3.72;;;2.10;;
53652;SDS011;39553;52.954;5.932;2023-04-03T05:16:57;5.05;;;1.92;;
53652;SDS011;39553;52.954;5.932;2023-04-03T05:19:23;7.70;;;2.63;;
53652;SDS011;39553;52.954;5.932;2023-04-03T05:21:49;5.75;;;2.30;;
53652;SDS011;39553;52.954;5.932;2023-04-03T05:24:15;3.83;;;2.00;;
53652;SDS011;39553;52.954;5.932;2023-04-03T05:26:42;5.38;;;2.10;;
53652;SDS011;39553;52.954;5.932;2023-04-03T05:29:08;5.05;;;2.05;;
53652;SDS011;39553;52.954;5.932;2023-04-03T05:31:35;7.43;;;2.05;;
53652;SDS011;39553;52.954;5.932;2023-04-03T05:34:00;4.35;;;1.88;;
53652;SDS011;39553;52.954;5.932;2023-04-03T05:36:26;7.63;;;2.10;;
53652;SDS011;39553;52.954;5.932;2023-04-03T05:38:52;11.82;;;3.85;;
53652;SDS011;39553;52.954;5.932;2023-04-03T05:41:18;5.38;;;2.55;;
53652;SDS011;39553;52.954;5.932;2023-04-03T05:43:46;6.30;;;2.20;;
53652;SDS011;39553;52.954;5.932;2023-04-03T05:46:12;6.47;;;2.08;;
53652;SDS011;39553;52.954;5.932;2023-04-03T05:48:40;5.72;;;2.88;;
53652;SDS011;39553;52.954;5.932;2023-04-03T05:51:06;4.03;;;2.10;;
53652;SDS011;39553;52.954;5.932;2023-04-03T05:53:33;6.70;;;3.67;;
53652;SDS011;39553;52.954;5.932;2023-04-03T05:56:04;4.03;;;2.03;;
53652;SDS011;39553;52.954;5.932;2023-04-03T05:58:30;5.20;;;2.10;;
53652;SDS011;39553;52.954;5.932;2023-04-03T06:00:56;7.25;;;2.58;;
53652;SDS011;39553;52.954;5.932;2023-04-03T06:03:22;4.30;;;2.10;;
53652;SDS011;39553;52.954;5.932;2023-04-03T06:05:48;6.95;;;2.50;;
53652;SDS011;39553;52.954;5.932;2023-04-03T06:08:14;7.13;;;2.58;;
53652;SDS011;39553;52.954;5.932;2023-04-03T06:10:40;5.20;;;2.20;;
53652;SDS011;39553;52.954;5.932;2023-04-03T06:13:06;9.18;;;2.53;;
53652;SDS011;39553;52.954;5.932;2023-04-03T06:15:33;6.63;;;2.90;;
53652;SDS011;39553;52.954;5.932;2023-04-03T06:17:59;4.60;;;2.10;;
53652;SDS011;39553;52.954;5.932;2023-04-03T06:20:25;5.53;;;2.17;;
53652;SDS011;39553;52.954;5.932;2023-04-03T06:22:50;5.55;;;3.25;;
53652;SDS011;39553;52.954;5.932;2023-04-03T06:25:16;6.88;;;2.38;;
53652;SDS011;39553;52.954;5.932;2023-04-03T06:27:44;6.68;;;2.50;;
53652;SDS011;39553;52.954;5.932;2023-04-03T06:30:10;8.05;;;2.72;;
53652;SDS011;39553;52.954;5.932;2023-04-03T06:32:36;4.25;;;2.55;;
53652;SDS011;39553;52.954;5.932;2023-04-03T06:35:04;6.72;;;2.05;;
53652;SDS011;39553;52.954;5.932;2023-04-03T06:37:30;6.78;;;2.90;;
53652;SDS011;39553;52.954;5.932;2023-04-03T06:39:57;2.97;;;2.03;;
53652;SDS011;39553;52.954;5.932;2023-04-03T06:42:25;8.35;;;2.08;;
53652;SDS011;39553;52.954;5.932;2023-04-03T06:44:51;6.90;;;1.90;;
53652;SDS011;39553;52.954;5.932;2023-04-03T06:47:17;5.30;;;2.25;;
53652;SDS011;39553;52.954;5.932;2023-04-03T06:49:43;6.95;;;2.13;;
53652;SDS011;39553;52.954;5.932;2023-04-03T06:52:09;4.05;;;2.03;;
53652;SDS011;39553;52.954;5.932;2023-04-03T06:54:37;6.82;;;2.28;;
53652;SDS011;39553;52.954;5.932;2023-04-03T06:57:03;4.78;;;1.75;;
53652;SDS011;39553;52.954;5.932;2023-04-03T06:59:29;4.00;;;1.98;;
53652;SDS011;39553;52.954;5.932;2023-04-03T07:01:55;6.38;;;2.33;;
53652;SDS011;39553;52.954;5.932;2023-04-03T07:04:21;4.78;;;1.80;;
53652;SDS011;39553;52.954;5.932;2023-04-03T07:06:47;4.40;;;1.95;;
53652;SDS011;39553;52.954;5.932;2023-04-03T07:09:15;5.03;;;1.80;;
53652;SDS011;39553;52.954;5.932;2023-04-03T07:11:41;5.03;;;1.60;;
53652;SDS011;39553;52.954;5.932;2023-04-03T07:14:07;5.03;;;2.47;;
53652;SDS011;39553;52.954;5.932;2023-04-03T07:16:34;9.05;;;2.28;;
53652;SDS011;39553;52.954;5.932;2023-04-03T07:19:00;5.55;;;1.88;;
53652;SDS011;39553;52.954;5.932;2023-04-03T07:21:27;4.75;;;1.90;;
53652;SDS011;39553;52.954;5.932;2023-04-03T07:23:53;4.78;;;1.77;;
53652;SDS011;39553;52.954;5.932;2023-04-03T07:26:19;4.82;;;2.00;;
53652;SDS011;39553;52.954;5.932;2023-04-03T07:28:47;4.50;;;1.20;;
53652;SDS011;39553;52.954;5.932;2023-04-03T07:31:15;11.02;;;2.80;;
53652;SDS011;39553;52.954;5.932;2023-04-03T07:33:42;4.30;;;1.33;;
53652;SDS011;39553;52.954;5.932;2023-04-03T07:36:09;3.78;;;1.58;;
53652;SDS011;39553;52.954;5.932;2023-04-03T07:38:39;3.83;;;2.00;;
53652;SDS011;39553;52.954;5.932;2023-04-03T07:41:05;6.43;;;1.52;;
53652;SDS011;39553;52.954;5.932;2023-04-03T07:43:32;8.00;;;2.35;;
53652;SDS011;39553;52.954;5.932;2023-04-03T07:45:59;4.20;;;1.80;;
53652;SDS011;39553;52.954;5.932;2023-04-03T07:48:25;4.00;;;1.58;;
53652;SDS011;39553;52.954;5.932;2023-04-03T07:50:51;9.30;;;2.55;;
53652;SDS011;39553;52.954;5.932;2023-04-03T07:53:17;4.25;;;1.55;;
53652;SDS011;39553;52.954;5.932;2023-04-03T07:55:45;7.80;;;1.88;;
53652;SDS011;39553;52.954;5.932;2023-04-03T07:58:14;6.90;;;1.58;;
53652;SDS011;39553;52.954;5.932;2023-04-03T08:00:42;7.30;;;1.65;;
53652;SDS011;39553;52.954;5.932;2023-04-03T08:03:09;5.15;;;1.80;;
53652;SDS011;39553;52.954;5.932;2023-04-03T08:05:37;6.15;;;1.67;;
53652;SDS011;39553;52.954;5.932;2023-04-03T08:08:04;4.47;;;1.52;;
53652;SDS011;39553;52.954;5.932;2023-04-03T08:10:31;4.90;;;1.70;;
53652;SDS011;39553;52.954;5.932;2023-04-03T08:12:57;4.07;;;1.52;;
53652;SDS011;39553;52.954;5.932;2023-04-03T08:15:23;3.05;;;1.50;;
53652;SDS011;39553;52.954;5.932;2023-04-03T08:17:49;4.22;;;1.30;;
53652;SDS011;39553;52.954;5.932;2023-04-03T08:20:15;2.55;;;1.40;;
53652;SDS011;39553;52.954;5.932;2023-04-03T08:22:42;4.03;;;1.50;;
53652;SDS011;39553;52.954;5.932;2023-04-03T08:25:08;3.15;;;1.73;;
53652;SDS011;39553;52.954;5.932;2023-04-03T08:27:34;2.70;;;1.35;;
53652;SDS011;39553;52.954;5.932;2023-04-03T08:30:00;6.95;;;1.67;;
53652;SDS011;39553;52.954;5.932;2023-04-03T08:32:26;4.13;;;1.50;;
53652;SDS011;39553;52.954;5.932;2023-04-03T08:34:52;2.40;;;1.30;;
53652;SDS011;39553;52.954;5.932;2023-04-03T08:37:18;3.20;;;1.05;;
53652;SDS011;39553;52.954;5.932;2023-04-03T08:39:44;3.30;;;1.33;;
53652;SDS011;39553;52.954;5.932;2023-04-03T08:50:32;3.80;;;1.30;;
53652;SDS011;39553;52.954;5.932;2023-04-03T08:53:03;2.13;;;1.35;;
53652;SDS011;39553;52.954;5.932;2023-04-03T08:55:37;3.70;;;1.30;;
53652;SDS011;39553;52.954;5.932;2023-04-03T09:00:57;3.10;;;1.58;;
53652;SDS011;39553;52.954;5.932;2023-04-03T09:03:28;2.15;;;1.23;;
53652;SDS011;39553;52.954;5.932;2023-04-03T09:09:06;2.13;;;1.20;;
53652;SDS011;39553;52.954;5.932;2023-04-03T09:12:00;1.10;;;0.80;;
53652;SDS011;39553;52.954;5.932;2023-04-03T09:14:39;1.70;;;0.90;;
53652;SDS011;39553;52.954;5.932;2023-04-03T09:19:53;3.63;;;1.38;;
53652;SDS011;39553;52.954;5.932;2023-04-03T09:22:27;1.90;;;1.20;;
53652;SDS011;39553;52.954;5.932;2023-04-03T09:27:44;1.60;;;0.77;;
53652;SDS011;39553;52.954;5.932;2023-04-03T09:30:14;2.75;;;1.02;;
53652;SDS011;39553;52.954;5.932;2023-04-03T09:32:43;4.13;;;0.73;;
53652;SDS011;39553;52.954;5.932;2023-04-03T09:37:44;2.78;;;0.98;;
53652;SDS011;39553;52.954;5.932;2023-04-03T09:42:53;0.88;;;0.63;;
53652;SDS011;39553;52.954;5.932;2023-04-03T09:45:29;2.03;;;0.93;;
53652;SDS011;39553;52.954;5.932;2023-04-03T09:48:07;2.25;;;0.85;;
53652;SDS011;39553;52.954;5.932;2023-04-03T09:53:33;2.85;;;1.00;;
53652;SDS011;39553;52.954;5.932;2023-04-03T09:56:05;1.88;;;1.10;;
53652;SDS011;39553;52.954;5.932;2023-04-03T10:06:44;1.77;;;0.98;;
53652;SDS011;39553;52.954;5.932;2023-04-03T10:09:33;1.95;;;0.80;;
53652;SDS011;39553;52.954;5.932;2023-04-03T10:12:08;1.35;;;0.70;;
53652;SDS011;39553;52.954;5.932;2023-04-03T10:14:37;1.63;;;1.00;;
53652;SDS011;39553;52.954;5.932;2023-04-03T10:17:20;2.70;;;1.00;;
53652;SDS011;39553;52.954;5.932;2023-04-03T10:20:37;2.78;;;1.00;;
53652;SDS011;39553;52.954;5.932;2023-04-03T10:22:39;2.05;;;1.00;;
53652;SDS011;39553;52.954;5.932;2023-04-03T10:31:13;2.33;;;0.70;;
53652;SDS011;39553;52.954;5.932;2023-04-03T10:36:43;2.70;;;0.90;;
53652;SDS011;39553;52.954;5.932;2023-04-03T10:47:44;1.83;;;1.10;;
53652;SDS011;39553;52.954;5.932;2023-04-03T10:50:43;2.50;;;0.85;;
53652;SDS011;39553;52.954;5.932;2023-04-03T10:53:39;2.38;;;0.80;;
53652;SDS011;39553;52.954;5.932;2023-04-03T10:56:19;2.08;;;0.90;;
53652;SDS011;39553;52.954;5.932;2023-04-03T11:04:44;2.72;;;1.40;;
53652;SDS011;39553;52.954;5.932;2023-04-03T11:07:23;2.10;;;0.80;;
53652;SDS011;39553;52.954;5.932;2023-04-03T11:10:44;1.80;;;0.70;;
53652;SDS011;39553;52.954;5.932;2023-04-03T11:13:22;1.38;;;0.73;;
53652;SDS011;39553;52.954;5.932;2023-04-03T11:16:15;2.40;;;1.02;;
53652;SDS011;39553;52.954;5.932;2023-04-03T11:18:50;2.15;;;1.40;;
53652;SDS011;39553;52.954;5.932;2023-04-03T11:21:39;1.88;;;0.80;;
53652;SDS011;39553;52.954;5.932;2023-04-03T11:24:33;2.47;;;0.80;;
53652;SDS011;39553;52.954;5.932;2023-04-03T11:27:00;3.10;;;1.08;;
53652;SDS011;39553;52.954;5.932;2023-04-03T11:29:37;1.48;;;0.70;;
53652;SDS011;39553;52.954;5.932;2023-04-03T11:32:27;4.50;;;1.23;;
53652;SDS011;39553;52.954;5.932;2023-04-03T11:34:58;2.80;;;1.08;;
53652;SDS011;39553;52.954;5.932;2023-04-03T11:40:28;1.63;;;1.00;;
53652;SDS011;39553;52.954;5.932;2023-04-03T11:45:53;1.92;;;0.80;;
53652;SDS011;39553;52.954;5.932;2023-04-03T11:50:59;1.95;;;0.98;;
53652;SDS011;39553;52.954;5.932;2023-04-03T11:53:26;1.23;;;0.80;;
53652;SDS011;39553;52.954;5.932;2023-04-03T12:04:10;1.55;;;0.88;;
53652;SDS011;39553;52.954;5.932;2023-04-03T12:12:28;1.92;;;1.08;;
53652;SDS011;39553;52.954;5.932;2023-04-03T12:15:25;2.75;;;0.90;;
53652;SDS011;39553;52.954;5.932;2023-04-03T12:21:13;3.38;;;0.98;;
53652;SDS011;39553;52.954;5.932;2023-04-03T12:30:18;2.10;;;0.93;;
53652;SDS011;39553;52.954;5.932;2023-04-03T12:35:47;4.68;;;0.98;;
53652;SDS011;39553;52.954;5.932;2023-04-03T12:38:33;2.53;;;1.20;;
53652;SDS011;39553;52.954;5.932;2023-04-03T12:44:02;1.73;;;0.80;;
53652;SDS011;39553;52.954;5.932;2023-04-03T12:46:48;3.78;;;0.85;;
53652;SDS011;39553;52.954;5.932;2023-04-03T12:51:52;1.77;;;1.00;;
53652;SDS011;39553;52.954;5.932;2023-04-03T12:57:21;3.88;;;1.30;;
53652;SDS011;39553;52.954;5.932;2023-04-03T12:59:51;2.15;;;0.93;;
53652;SDS011;39553;52.954;5.932;2023-04-03T13:02:27;2.97;;;0.95;;
53652;SDS011;39553;52.954;5.932;2023-04-03T13:05:08;4.18;;;1.00;;
53652;SDS011;39553;52.954;5.932;2023-04-03T13:07:39;2.47;;;0.90;;
53652;SDS011;39553;52.954;5.932;2023-04-03T13:12:44;2.67;;;1.08;;
53652;SDS011;39553;52.954;5.932;2023-04-03T13:17:51;3.55;;;1.10;;
53652;SDS011;39553;52.954;5.932;2023-04-03T13:20:28;4.10;;;1.30;;
53652;SDS011;39553;52.954;5.932;2023-04-03T13:25:28;2.25;;;0.98;;
53652;SDS011;39553;52.954;5.932;2023-04-03T13:27:57;2.90;;;1.10;;
53652;SDS011;39553;52.954;5.932;2023-04-03T13:32:55;3.38;;;1.60;;
53652;SDS011;39553;52.954;5.932;2023-04-03T13:35:30;3.33;;;1.25;;
53652;SDS011;39553;52.954;5.932;2023-04-03T13:37:58;2.38;;;1.02;;
53652;SDS011;39553;52.954;5.932;2023-04-03T13:40:25;4.72;;;1.10;;
53652;SDS011;39553;52.954;5.932;2023-04-03T13:43:02;3.55;;;1.58;;
53652;SDS011;39553;52.954;5.932;2023-04-03T13:45:54;2.25;;;1.20;;
53652;SDS011;39553;52.954;5.932;2023-04-03T13:48:20;2.42;;;1.02;;
53652;SDS011;39553;52.954;5.932;2023-04-03T13:50:55;2.88;;;1.25;;
53652;SDS011;39553;52.954;5.932;2023-04-03T13:53:30;2.65;;;1.40;;
53652;SDS011;39553;52.954;5.932;2023-04-03T13:55:58;1.50;;;0.93;;
53652;SDS011;39553;52.954;5.932;2023-04-03T13:58:30;2.47;;;1.40;;
53652;SDS011;39553;52.954;5.932;2023-04-03T14:06:05;2.80;;;1.13;;
53652;SDS011;39553;52.954;5.932;2023-04-03T14:08:32;6.13;;;2.90;;
53652;SDS011;39553;52.954;5.932;2023-04-03T14:10:58;5.85;;;1.13;;
53652;SDS011;39553;52.954;5.932;2023-04-03T14:13:24;2.85;;;1.40;;
53652;SDS011;39553;52.954;5.932;2023-04-03T14:15:49;6.28;;;1.25;;
53652;SDS011;39553;52.954;5.932;2023-04-03T14:18:17;5.63;;;3.10;;
53652;SDS011;39553;52.954;5.932;2023-04-03T14:20:45;4.05;;;1.50;;
53652;SDS011;39553;52.954;5.932;2023-04-03T14:23:14;2.13;;;1.30;;
53652;SDS011;39553;52.954;5.932;2023-04-03T14:25:40;5.15;;;1.60;;
53652;SDS011;39553;52.954;5.932;2023-04-03T14:28:28;2.63;;;1.20;;
53652;SDS011;39553;52.954;5.932;2023-04-03T14:30:55;4.70;;;1.23;;
53652;SDS011;39553;52.954;5.932;2023-04-03T14:33:30;3.10;;;1.73;;
53652;SDS011;39553;52.954;5.932;2023-04-03T14:36:00;5.00;;;1.40;;
53652;SDS011;39553;52.954;5.932;2023-04-03T14:38:29;3.80;;;1.42;;
53652;SDS011;39553;52.954;5.932;2023-04-03T14:40:56;2.75;;;1.20;;
53652;SDS011;39553;52.954;5.932;2023-04-03T14:43:23;4.15;;;1.35;;
53652;SDS011;39553;52.954;5.932;2023-04-03T14:45:50;3.08;;;1.40;;
53652;SDS011;39553;52.954;5.932;2023-04-03T14:48:18;3.00;;;1.40;;
53652;SDS011;39553;52.954;5.932;2023-04-03T14:50:46;2.92;;;1.10;;
53652;SDS011;39553;52.954;5.932;2023-04-03T14:53:13;1.92;;;1.00;;
53652;SDS011;39553;52.954;5.932;2023-04-03T14:55:40;5.30;;;1.00;;
53652;SDS011;39553;52.954;5.932;2023-04-03T14:58:13;6.07;;;1.92;;
53652;SDS011;39553;52.954;5.932;2023-04-03T15:00:40;1.83;;;1.30;;
53652;SDS011;39553;52.954;5.932;2023-04-03T15:03:18;2.20;;;1.00;;
53652;SDS011;39553;52.954;5.932;2023-04-03T15:05:47;4.05;;;1.42;;
53652;SDS011;39553;52.954;5.932;2023-04-03T15:08:18;3.05;;;1.60;;
53652;SDS011;39553;52.954;5.932;2023-04-03T15:10:50;2.42;;;1.40;;
53652;SDS011;39553;52.954;5.932;2023-04-03T15:13:20;3.72;;;1.30;;
53652;SDS011;39553;52.954;5.932;2023-04-03T15:15:47;2.38;;;1.70;;
53652;SDS011;39553;52.954;5.932;2023-04-03T15:18:24;9.25;;;4.38;;
53652;SDS011;39553;52.954;5.932;2023-04-03T15:20:55;3.13;;;1.63;;
53652;SDS011;39553;52.954;5.932;2023-04-03T15:23:21;2.83;;;1.65;;
53652;SDS011;39553;52.954;5.932;2023-04-03T15:25:51;2.75;;;1.50;;
53652;SDS011;39553;52.954;5.932;2023-04-03T15:28:21;2.40;;;1.30;;
53652;SDS011;39553;52.954;5.932;2023-04-03T15:31:08;3.90;;;1.55;;
53652;SDS011;39553;52.954;5.932;2023-04-03T15:33:35;4.30;;;1.20;;
53652;SDS011;39553;52.954;5.932;2023-04-03T15:36:01;3.88;;;1.45;;
53652;SDS011;39553;52.954;5.932;2023-04-03T15:38:27;8.25;;;1.60;;
53652;SDS011;39553;52.954;5.932;2023-04-03T15:40:55;2.45;;;1.10;;
53652;SDS011;39553;52.954;5.932;2023-04-03T15:43:21;1.98;;;1.30;;
53652;SDS011;39553;52.954;5.932;2023-04-03T15:45:48;2.40;;;1.52;;
53652;SDS011;39553;52.954;5.932;2023-04-03T15:48:16;2.90;;;1.42;;
53652;SDS011;39553;52.954;5.932;2023-04-03T15:50:43;3.63;;;1.40;;
53652;SDS011;39553;52.954;5.932;2023-04-03T15:53:09;2.35;;;1.10;;
53652;SDS011;39553;52.954;5.932;2023-04-03T15:55:36;5.65;;;1.42;;
53652;SDS011;39553;52.954;5.932;2023-04-03T15:58:03;2.33;;;1.08;;
53652;SDS011;39553;52.954;5.932;2023-04-03T16:00:29;3.17;;;1.55;;
53652;SDS011;39553;52.954;5.932;2023-04-03T16:02:57;2.65;;;1.17;;
53652;SDS011;39553;52.954;5.932;2023-04-03T16:05:35;3.42;;;1.27;;
53652;SDS011;39553;52.954;5.932;2023-04-03T16:08:02;2.60;;;1.20;;
53652;SDS011;39553;52.954;5.932;2023-04-03T16:10:30;2.30;;;1.10;;
53652;SDS011;39553;52.954;5.932;2023-04-03T16:12:56;1.55;;;1.00;;
53652;SDS011;39553;52.954;5.932;2023-04-03T16:15:22;5.00;;;1.50;;
53652;SDS011;39553;52.954;5.932;2023-04-03T16:17:49;2.13;;;1.40;;
53652;SDS011;39553;52.954;5.932;2023-04-03T16:20:15;2.40;;;1.25;;
53652;SDS011;39553;52.954;5.932;2023-04-03T16:22:42;4.35;;;1.80;;
53652;SDS011;39553;52.954;5.932;2023-04-03T16:25:08;3.30;;;1.30;;
53652;SDS011;39553;52.954;5.932;2023-04-03T16:27:35;1.55;;;1.00;;
53652;SDS011;39553;52.954;5.932;2023-04-03T16:30:01;3.42;;;0.95;;
53652;SDS011;39553;52.954;5.932;2023-04-03T16:32:29;3.30;;;1.25;;
53652;SDS011;39553;52.954;5.932;2023-04-03T16:34:56;2.15;;;1.13;;
53652;SDS011;39553;52.954;5.932;2023-04-03T16:37:23;4.22;;;1.40;;
53652;SDS011;39553;52.954;5.932;2023-04-03T16:39:48;1.23;;;0.65;;
53652;SDS011;39553;52.954;5.932;2023-04-03T16:42:14;2.60;;;1.15;;
53652;SDS011;39553;52.954;5.932;2023-04-03T16:44:40;2.20;;;1.35;;
53652;SDS011;39553;52.954;5.932;2023-04-03T16:47:07;2.70;;;1.40;;
53652;SDS011;39553;52.954;5.932;2023-04-03T16:49:34;2.55;;;1.30;;
53652;SDS011;39553;52.954;5.932;2023-04-03T16:52:01;4.38;;;1.20;;
53652;SDS011;39553;52.954;5.932;2023-04-03T16:54:27;3.83;;;1.60;;
53652;SDS011;39553;52.954;5.932;2023-04-03T16:56:54;2.20;;;1.20;;
53652;SDS011;39553;52.954;5.932;2023-04-03T16:59:20;1.55;;;1.00;;
53652;SDS011;39553;52.954;5.932;2023-04-03T17:01:46;3.30;;;1.15;;
53652;SDS011;39553;52.954;5.932;2023-04-03T17:04:11;5.03;;;1.23;;